Spring, Texas
Current Conditions -  °F | °C
As of 3:53 PM on Thursday 27 Nov 2014 (Local Time) from KDWH Reporting Station
Clear Clear  
Wind Chill: 66°   Ceiling: Unl
Heat Index: 66°   Visibility: 10mi
Dew Point: 30°   Wind: 3mph
Humidity: 26%   Direction: NA
Pressure: 30.42"   Gusts: NA
Location:  30.08°N, 95.42°W
Report Text: KDWH 272153Z VRB03KT 10SM CLR 19/M01 A3042 RMK AO2 SLP298 T01891011
Loading
Personal Weather Stations






























Interactive Weather Map New forecast layout! Learn more

10-Day Weather Forecast

Advertisements
Track Severe Weather on mobile